Flight Track Log - Related Links

Times and Time Zones

All times are in EDT time to prevent confusion due to time zone crossing. See the DAL5814 flight status page for this flight to view local times or setup timezone preferences in your user account.

Time Position Orientation Groundspeed Altitude Reporting Facility
EDT Latitude Longitude Course Direction KTS MPH feet Rate Location/Type
Mon 07:10:03 AM 30.5069 -81.6653 24° Northeast 157 181 700  Level Jacksonville Center
Mon 07:10:27 AM 30.5131 -81.6458 70° East 162 186 1,400 1,553 Climbing Jacksonville Center
Mon 07:11:28 AM 30.5522 -81.6019 44° Northeast 210 242 2,900 1,367 Climbing Jacksonville Center
Mon 07:11:46 AM 30.5606 -81.5922 45° Northeast 234 269 3,200 2,200 Climbing Jacksonville Center
Mon 07:12:28 AM 30.6039 -81.5433 44° Northeast 277 319 5,100 2,200 Climbing Jacksonville Center
Mon 07:12:46 AM 30.6164 -81.5311 40° Northeast 299 344 5,400 2,615 Climbing Jacksonville Center
Mon 07:13:00 AM 30.9204 -81.4066 19° North  Level Estimated
Mon 07:13:46 AM 30.6761 -81.4675 42° Northeast 306 352 8,500  Level Jacksonville Center
Mon 07:14:00 AM 31.0269 -81.3359 356° North  Level Estimated
Mon 07:14:46 AM 30.7422 -81.4014 41° Northeast 306 352 10,800  Level Jacksonville Center
Mon 07:15:00 AM 31.1388 -81.2777 24° Northeast  Level FlightAware Approximate
Mon 07:15:46 AM 30.8381 -81.3803 11° North 317 365 12,600  Level Jacksonville Center
Mon 07:16:46 AM 30.9400 -81.3667 North 345 397 14,500 2,000 Climbing Jacksonville Center
Mon 07:17:46 AM 31.0506 -81.3528 North 368 423 16,600 1,900 Climbing Jacksonville Center
Mon 07:18:46 AM 31.1611 -81.3389 North 383 441 18,300 1,600 Climbing Jacksonville Center
Mon 07:19:46 AM 31.2778 -81.3222 North 403 464 19,800 1,700 Climbing Jacksonville Center
Mon 07:20:46 AM 31.4069 -81.3006 North 429 494 21,700 1,650 Climbing Jacksonville Center
Mon 07:21:46 AM 31.5153 -81.2867 North 434 499 23,100 1,450 Climbing Jacksonville Center
Mon 07:22:46 AM 31.6508 -81.2647 North 440 506 24,600 1,250 Climbing Jacksonville Center
Mon 07:23:46 AM 31.7650 -81.2064 23° Northeast 440 506 25,600 1,050 Climbing Jacksonville Center
Mon 07:24:46 AM 31.8664 -81.1411 29° Northeast 451 519 26,700 1,250 Climbing Jacksonville Center
Mon 07:25:46 AM 31.9947 -81.0628 27° Northeast 457 526 28,100 1,100 Climbing Jacksonville Center
Mon 07:26:46 AM 32.1003 -80.9992 27° Northeast 465 535 28,900 950 Climbing Jacksonville Center
Mon 07:27:46 AM 32.2283 -80.9231 27° Northeast 465 535 30,000 1,000 Climbing Jacksonville Center
Mon 07:28:46 AM 32.3319 -80.8617 27° Northeast 459 528 30,900 850 Climbing Jacksonville Center
Mon 07:29:46 AM 32.4600 -80.7800 28° Northeast 464 534 31,700 850 Climbing Jacksonville Center
Mon 07:30:46 AM 32.5756 -80.7083 28° Northeast 464 534 32,600 850 Climbing Jacksonville Center
Mon 07:31:46 AM 32.6933 -80.6339 28° Northeast 464 534 33,400 850 Climbing Jacksonville Center
Mon 07:32:46 AM 32.8047 -80.5669 27° Northeast 464 534 34,300 800 Climbing Jacksonville Center
Mon 07:33:46 AM 32.9247 -80.4994 25° Northeast 464 534 35,000 350 Climbing Jacksonville Center
Mon 07:34:46 AM 33.0467 -80.4342 24° Northeast 464 534 35,000  Level Jacksonville Center
Mon 07:35:46 AM 33.1600 -80.3692 26° Northeast 476 548 35,000  Level Jacksonville Center
Mon 07:36:46 AM 33.2922 -80.2958 25° Northeast 481 554 35,000  Level Jacksonville Center
Mon 07:37:46 AM 33.4014 -80.2331 26° Northeast 481 554 35,000  Level Jacksonville Center
Mon 07:38:46 AM 33.5211 -80.1644 26° Northeast 476 548 35,000  Level Jacksonville Center
Mon 07:39:46 AM 33.6447 -80.0933 26° Northeast 481 554 35,000  Level Jacksonville Center
Mon 07:40:46 AM 33.7664 -80.0244 25° Northeast 481 554 35,000  Level Jacksonville Center
Mon 07:42:21 AM 33.9517 -79.9175 26° Northeast 456 525 35,000  Level Washington Center
Mon 07:43:23 AM 34.0753 -79.8464 25° Northeast 468 539 35,000  Level Washington Center
Mon 07:44:23 AM 34.1967 -79.7772 25° Northeast 473 544 35,000  Level Washington Center
Mon 07:45:22 AM 34.3308 -79.6961 27° Northeast 473 544 35,000  Level Washington Center
Mon 07:46:22 AM 34.4542 -79.6267 25° Northeast 473 544 35,000  Level Washington Center
Mon 07:47:23 AM 34.5756 -79.5544 26° Northeast 473 544 35,000  Level Washington Center
Mon 07:48:24 AM 34.6969 -79.4847 25° Northeast 473 544 35,000  Level Washington Center
Mon 07:49:24 AM 34.8181 -79.4119 26° Northeast 473 544 35,000  Level Washington Center
Mon 07:50:22 AM 34.9392 -79.3442 25° Northeast 473 544 35,000  Level Washington Center
Mon 07:51:23 AM 35.0647 -79.2689 26° Northeast 473 544 35,000  Level Washington Center
Mon 07:52:21 AM 35.1836 -79.1981 26° Northeast 473 544 35,000  Level Washington Center
Mon 07:53:22 AM 35.3067 -79.1272 25° Northeast 478 550 35,000  Level Washington Center
Mon 07:54:23 AM 35.4200 -79.0353 33° Northeast 487 560 35,000  Level Washington Center
Mon 07:55:23 AM 35.5253 -78.9353 38° Northeast 475 547 35,000  Level Washington Center
Mon 07:56:24 AM 35.6322 -78.8325 38° Northeast 475 547 35,000  Level Washington Center
Mon 07:57:22 AM 35.7417 -78.7244 39° Northeast 486 559 35,000  Level Washington Center
Mon 07:58:23 AM 35.8508 -78.6158 39° Northeast 491 565 35,000  Level Washington Center
Mon 07:59:23 AM 35.9558 -78.5094 39° Northeast 491 565 35,000  Level Washington Center
Mon 08:00:22 AM 36.0647 -78.4031 38° Northeast 491 565 35,000  Level Washington Center
Mon 08:01:23 AM 36.1736 -78.2964 38° Northeast 491 565 35,000  Level Washington Center
Mon 08:02:24 AM 36.2825 -78.1867 39° Northeast 491 565 35,000  Level Washington Center
Mon 08:03:24 AM 36.3761 -78.0917 39° Northeast 491 565 35,000  Level Washington Center
Mon 08:04:22 AM 36.4914 -77.9742 39° Northeast 491 565 35,000  Level Washington Center
Mon 08:05:24 AM 36.5978 -77.8633 40° Northeast 491 565 35,000  Level Washington Center
Mon 08:06:22 AM 36.7019 -77.7603 38° Northeast 486 559 35,000  Level Washington Center
Mon 08:07:22 AM 36.8081 -77.6517 39° Northeast 486 559 35,000  Level Washington Center
Mon 08:08:23 AM 36.9142 -77.5428 39° Northeast 486 559 35,000  Level Washington Center
Mon 08:09:23 AM 37.0181 -77.4361 39° Northeast 486 559 35,000  Level Washington Center
Mon 08:10:24 AM 37.1219 -77.3292 39° Northeast 486 559 35,000  Level Washington Center
Mon 08:11:22 AM 37.2256 -77.2219 39° Northeast 481 554 35,000  Level Washington Center
Mon 08:12:22 AM 37.3314 -77.1172 38° Northeast 481 554 35,000  Level Washington Center
Mon 08:13:23 AM 37.4472 -77.0253 32° Northeast 488 562 35,000  Level Washington Center
Mon 08:14:22 AM 37.5608 -76.9461 29° Northeast 497 572 35,000  Level Washington Center
Mon 08:15:22 AM 37.6744 -76.8617 30° Northeast 492 566 35,000  Level Washington Center
Mon 08:16:23 AM 37.7900 -76.7742 31° Northeast 485 558 35,000  Level Washington Center
Mon 08:17:23 AM 37.9033 -76.6867 31° Northeast 485 558 35,000  Level Washington Center
Mon 08:18:24 AM 38.0250 -76.5986 30° Northeast 485 558 35,000  Level Washington Center
Mon 08:19:24 AM 38.1406 -76.5106 31° Northeast 485 558 35,000  Level Washington Center
Mon 08:20:22 AM 38.2578 -76.4219 31° Northeast 485 558 35,000  Level Washington Center
Mon 08:21:23 AM 38.3794 -76.3147 35° Northeast 485 558 35,000  Level Washington Center
Mon 08:22:23 AM 38.4906 -76.2125 36° Northeast 485 558 35,000 -149 Level Washington Center
Mon 08:23:24 AM 38.5911 -76.1203 36° Northeast 485 558 34,700 -1,388 Descending Washington Center
Mon 08:24:24 AM 38.7042 -76.0172 35° Northeast 491 565 32,200 -2,644 Descending Washington Center
Mon 08:25:22 AM 38.8150 -75.9114 37° Northeast 496 571 29,500 -2,644 Descending Washington Center
Mon 08:26:22 AM 38.9256 -75.8050 37° Northeast 496 571 27,000 -1,240 Descending Washington Center
Mon 08:27:23 AM 39.0342 -75.7039 36° Northeast 491 565 27,000  Level Washington Center
Mon 08:28:24 AM 39.1447 -75.6022 35° Northeast 491 565 27,000  Level Washington Center
Mon 08:29:24 AM 39.2531 -75.4978 37° Northeast 491 565 27,000  Level Washington Center
Mon 08:30:22 AM 39.3656 -75.4011 34° Northeast 485 558 27,000 -864 Level Washington Center
Mon 08:31:22 AM 39.4756 -75.3011 35° Northeast 485 558 25,300 -2,083 Descending Washington Center
Mon 08:32:23 AM 39.5817 -75.2011 36° Northeast 480 552 22,800 -2,508 Descending Washington Center
Mon 08:33:24 AM 39.6958 -75.0981 35° Northeast 467 537 20,200 -2,529 Descending Washington Center
Mon 08:34:24 AM 39.7975 -75.0108 33° Northeast 441 507 17,700 -2,288 Descending Washington Center
Mon 08:35:22 AM 39.8950 -74.9261 34° Northeast 429 494 15,700 -2,218 Descending Washington Center
Mon 08:36:23 AM 39.9756 -74.8200 45° Northeast 421 484 13,300 -2,256 Descending Washington Center
Mon 08:37:27 AM 40.0500 -74.7000 51° Northeast 389 448 11,000 -1,678 Descending New York TRACON
Mon 08:38:21 AM 40.1167 -74.6167 44° Northeast 372 428 10,000 -500 Descending New York TRACON
Mon 08:39:27 AM 40.2000 -74.5000 47° Northeast 382 440 10,000  Level New York TRACON
Mon 08:40:27 AM 40.2667 -74.4167 44° Northeast 359 413 10,000 -700 Level New York TRACON
Mon 08:41:27 AM 40.3333 -74.3333 44° Northeast 325 374 8,600 -1,500 Descending New York TRACON
Mon 08:42:27 AM 40.4000 -74.2500 44° Northeast 317 365 7,000 -800 Descending New York TRACON
Mon 08:43:27 AM 40.4667 -74.1667 44° Northeast 309 356 7,000 -300 Level New York TRACON
Mon 08:44:27 AM 40.5167 -74.1167 37° Northeast 270 311 6,400 -900 Descending New York TRACON
Mon 08:45:27 AM 40.6000 -74.1000 North 265 305 5,200 -1,000 Descending New York TRACON
Mon 08:46:27 AM 40.6667 -74.0833 11° North 232 267 4,400 -600 Descending New York TRACON
Mon 08:47:27 AM 40.7167 -74.0500 27° Northeast 227 261 4,000 -211 Descending New York TRACON
Mon 08:48:21 AM 40.7667 -74.0167 27° Northeast 228 262 4,000  Level New York TRACON
Mon 08:49:21 AM 40.8333 -73.9833 21° North 225 259 4,000  Level New York TRACON
Mon 08:50:21 AM 40.8833 -73.9500 27° Northeast 228 262 4,000  Level New York TRACON
Mon 08:51:15 AM 40.9333 -73.9000 37° Northeast 224 258 4,000  Level New York TRACON
Mon 08:52:15 AM 40.9667 -73.8500 49° Northeast 221 254 4,000  Level New York TRACON
Mon 08:53:15 AM 40.9833 -73.7667 75° East 209 241 4,000 -150 Level New York TRACON
Mon 08:54:15 AM 40.9667 -73.7333 124° Southeast 165 190 3,700 -526 Descending New York TRACON
Mon 08:55:09 AM 40.9333 -73.7500 201° Southwest 170 196 3,000 -737 Descending New York TRACON
Mon 08:56:09 AM 40.8833 -73.7833 207° Southwest 161 185 2,300 -750 Descending New York TRACON
Mon 08:57:09 AM 40.8500 -73.8167 217° Southwest 158 182 1,500 -762 Descending New York TRACON
Mon 08:58:15 AM 40.8167 -73.8500 217° Southwest 124 143 700 -619 Descending New York TRACON
Mon 08:59:15 AM 40.7833 -73.8667 201° Southwest 121 139 200 -500 Descending New York TRACON

Login

Don't have an account? Register now (free) for customized features, flight alerts, and more!